Time;durP1;ratioP1;P1;durP2;ratioP2;P2;SDS_P1;SDS_P2;PMS_P1;PMS_P2;Temp;Humidity;BMP_temperature;BMP_pressure;BME280_temperature;BME280_humidity;BME280_pressure;Samples;Min_cycle;Max_cycle;Signal;HPM_P1;HPM_P2
2023/10/24 00:02:14;;;;;;;6.10;2.50;;;;;;;7.40;94.97;96474.16;108215;1278;22570;-77
2023/10/24 00:04:45;;;;;;;5.10;2.60;;;;;;;7.32;94.89;96469.14;108201;1278;22636;-77
2023/10/24 00:07:15;;;;;;;6.10;2.30;;;;;;;7.34;95.31;96468.10;108183;1278;22548;-77
2023/10/24 00:09:46;;;;;;;4.10;2.30;;;;;;;7.34;95.22;96462.13;108206;1278;32383;-77
2023/10/24 00:12:17;;;;;;;5.80;2.30;;;;;;;7.29;95.15;96457.05;108203;1277;24373;-77
2023/10/24 00:14:48;;;;;;;5.60;2.40;;;;;;;7.29;95.37;96456.83;108185;1278;22550;-77
2023/10/24 00:17:19;;;;;;;4.00;2.10;;;;;;;7.31;95.65;96455.04;108196;1270;22573;-77
2023/10/24 00:19:50;;;;;;;5.80;2.50;;;;;;;7.30;95.67;96457.41;108162;1278;25782;-77
2023/10/24 00:22:21;;;;;;;4.80;2.20;;;;;;;7.31;95.85;96455.67;108205;1278;22524;-77
2023/10/24 00:24:52;;;;;;;5.20;2.10;;;;;;;7.37;96.06;96454.91;108179;1271;22551;-77
2023/10/24 00:27:25;;;;;;;4.30;2.10;;;;;;;7.41;96.32;96459.81;108195;1265;24403;-77
2023/10/24 00:29:57;;;;;;;4.20;2.60;;;;;;;7.49;96.62;96455.08;108176;1278;30201;-77
2023/10/24 00:32:27;;;;;;;3.70;1.80;;;;;;;7.55;96.56;96456.83;108215;1278;22540;-77
2023/10/24 00:35:01;;;;;;;3.60;1.90;;;;;;;7.52;96.26;96449.44;108185;1278;22535;-77
2023/10/24 00:37:32;;;;;;;7.60;2.10;;;;;;;7.50;96.04;96450.02;108213;1278;22539;-77
2023/10/24 00:40:04;;;;;;;4.20;2.40;;;;;;;7.49;96.38;96448.17;108210;1278;22555;-77
2023/10/24 00:42:35;;;;;;;3.70;1.80;;;;;;;7.58;96.65;96443.32;108208;1278;22550;-77
2023/10/24 00:45:11;;;;;;;4.20;2.00;;;;;;;7.63;96.49;96438.59;108174;1278;25431;-78
2023/10/24 00:47:42;;;;;;;2.60;1.60;;;;;;;7.62;96.21;96438.02;108088;1277;22542;-76
2023/10/24 00:50:13;;;;;;;2.10;1.60;;;;;;;7.66;96.39;96432.89;108232;1277;22633;-77
2023/10/24 00:52:45;;;;;;;4.20;1.60;;;;;;;7.73;96.65;96427.92;108231;1277;23042;-77
2023/10/24 00:55:17;;;;;;;2.80;1.60;;;;;;;7.78;96.73;96420.08;108164;1278;22548;-77
2023/10/24 00:57:48;;;;;;;3.00;1.70;;;;;;;7.78;96.51;96414.95;108202;1278;22574;-77
2023/10/24 01:00:20;;;;;;;2.70;1.50;;;;;;;7.80;96.65;96413.73;108220;1278;22964;-77
2023/10/24 01:02:51;;;;;;;6.70;1.90;;;;;;;7.82;96.72;96408.55;108200;1278;22531;-77
2023/10/24 01:05:30;;;;;;;5.10;1.80;;;;;;;7.83;96.63;96409.39;108169;1278;22520;-77
2023/10/24 01:08:01;;;;;;;3.60;1.90;;;;;;;7.81;96.34;96402.80;108225;1278;22587;-77
2023/10/24 01:10:32;;;;;;;2.60;1.60;;;;;;;7.78;96.23;96398.48;108206;1277;22537;-77
2023/10/24 01:13:04;;;;;;;2.70;1.40;;;;;;;7.72;96.06;96396.89;108175;1270;22983;-77
2023/10/24 01:15:35;;;;;;;4.00;1.70;;;;;;;7.66;95.87;96391.41;108203;1278;25297;-77
2023/10/24 01:18:06;;;;;;;3.00;1.50;;;;;;;7.58;96.01;96394.73;108148;1278;50413;-76
2023/10/24 01:20:39;;;;;;;5.00;1.90;;;;;;;7.54;96.01;96396.48;108158;1278;22668;-77
2023/10/24 01:23:11;;;;;;;3.00;1.80;;;;;;;7.51;96.17;96395.42;108192;1278;25311;-77
2023/10/24 01:25:43;;;;;;;6.30;1.70;;;;;;;7.49;96.12;96391.52;108192;1278;24267;-77
2023/10/24 01:28:14;;;;;;;2.50;1.30;;;;;;;7.45;95.95;96389.20;108151;1278;23990;-77
2023/10/24 01:30:45;;;;;;;3.00;1.40;;;;;;;7.41;95.64;96390.66;108218;1277;25413;-77
2023/10/24 01:33:16;;;;;;;5.50;1.90;;;;;;;7.37;95.65;96387.88;108213;1278;25357;-77
2023/10/24 01:35:47;;;;;;;3.00;1.80;;;;;;;7.37;96.09;96393.98;108234;1278;22535;-77
2023/10/24 01:38:17;;;;;;;3.30;2.00;;;;;;;7.35;95.94;96394.37;108172;1278;22539;-77
2023/10/24 01:40:48;;;;;;;3.40;1.70;;;;;;;7.30;96.00;96398.61;108157;1278;22732;-77
2023/10/24 01:43:19;;;;;;;3.70;1.30;;;;;;;7.26;96.31;96399.77;108202;1271;22521;-77
2023/10/24 01:45:50;;;;;;;5.80;1.90;;;;;;;7.28;96.89;96404.30;108208;1278;22570;-77
2023/10/24 01:48:23;;;;;;;3.30;2.00;;;;;;;7.35;97.28;96407.23;108083;1278;22550;-77
2023/10/24 01:50:59;;;;;;;2.90;1.50;;;;;;;7.41;97.41;96408.38;108182;1278;22614;-77
2023/10/24 01:53:30;;;;;;;5.40;1.70;;;;;;;7.46;97.53;96414.58;108183;1273;22524;-77
2023/10/24 01:56:04;;;;;;;2.80;2.10;;;;;;;7.50;97.34;96412.88;108213;1278;24240;-77
2023/10/24 01:58:35;;;;;;;8.80;1.90;;;;;;;7.45;96.86;96405.75;108187;1278;22560;-77
2023/10/24 02:01:06;;;;;;;2.80;1.70;;;;;;;7.32;96.35;96405.64;108195;1278;22566;-77
2023/10/24 02:03:37;;;;;;;7.80;2.40;;;;;;;7.17;96.21;96401.29;108208;1278;22542;-77
2023/10/24 02:06:10;;;;;;;5.10;2.10;;;;;;;7.16;96.97;96393.16;108234;1278;22531;-77
2023/10/24 02:08:41;;;;;;;5.40;2.10;;;;;;;7.23;97.36;96394.39;108166;1278;22639;-77
2023/10/24 02:11:12;;;;;;;4.10;2.20;;;;;;;7.24;97.39;96396.09;108240;1278;24508;-77
2023/10/24 02:13:43;;;;;;;4.70;1.80;;;;;;;7.19;97.08;96392.75;108218;1278;22567;-77
2023/10/24 02:16:14;;;;;;;4.40;2.00;;;;;;;7.13;97.20;96387.20;108246;1278;22541;-76
2023/10/24 02:18:45;;;;;;;2.30;1.50;;;;;;;7.14;97.55;96381.23;108208;1278;24699;-77
2023/10/24 02:21:16;;;;;;;3.90;2.20;;;;;;;7.09;97.35;96380.61;108244;1278;22539;-77
2023/10/24 02:23:47;;;;;;;3.60;2.20;;;;;;;7.08;97.70;96378.55;108205;1278;22653;-77
2023/10/24 02:26:18;;;;;;;5.10;2.50;;;;;;;7.14;97.85;96380.61;108186;1278;22516;-77
2023/10/24 02:28:49;;;;;;;4.50;2.10;;;;;;;7.17;98.31;96384.42;108189;1278;22577;-77
2023/10/24 02:31:20;;;;;;;6.10;2.00;;;;;;;7.22;98.28;96388.54;108200;1278;22571;-77
2023/10/24 02:33:51;;;;;;;3.20;1.70;;;;;;;7.23;98.11;96387.33;108210;1270;22520;-77
2023/10/24 02:36:22;;;;;;;4.60;2.10;;;;;;;7.14;97.75;96382.40;108261;1278;23006;-77
2023/10/24 02:38:53;;;;;;;3.20;2.10;;;;;;;7.12;98.04;96382.77;108175;1278;47418;-77
2023/10/24 02:41:25;;;;;;;6.90;2.50;;;;;;;7.19;98.39;96386.38;108215;1278;22540;-77
2023/10/24 02:43:58;;;;;;;5.20;2.50;;;;;;;7.22;98.25;96389.86;108232;1278;22550;-77
2023/10/24 02:46:29;;;;;;;3.50;2.10;;;;;;;7.27;98.47;96382.32;108222;1278;22567;-77
2023/10/24 02:49:00;;;;;;;5.00;2.20;;;;;;;7.37;98.96;96376.38;108167;1278;25348;-77
2023/10/24 02:51:36;;;;;;;3.30;2.10;;;;;;;7.46;98.91;96372.00;108256;1277;22582;-77
2023/10/24 02:54:07;;;;;;;3.30;1.70;;;;;;;7.51;98.77;96368.84;108218;1278;23203;-77
2023/10/24 02:56:38;;;;;;;3.80;1.80;;;;;;;7.56;98.86;96367.14;108213;1278;22964;-77
2023/10/24 02:59:09;;;;;;;3.50;1.50;;;;;;;7.61;98.85;96362.30;108177;1270;22571;-77
2023/10/24 03:01:40;;;;;;;3.80;2.00;;;;;;;7.66;98.73;96358.59;108196;1278;22990;-77
2023/10/24 03:04:11;;;;;;;3.00;1.80;;;;;;;7.68;98.67;96352.20;108238;1277;22590;-77
2023/10/24 03:06:42;;;;;;;4.60;2.10;;;;;;;7.67;98.53;96349.73;108184;1254;22571;-77
2023/10/24 03:09:13;;;;;;;3.20;1.90;;;;;;;7.66;98.51;96347.61;108180;1276;22521;-77
2023/10/24 03:11:44;;;;;;;2.90;1.80;;;;;;;7.65;98.42;96349.95;108214;1278;22646;-77
2023/10/24 03:14:15;;;;;;;2.30;1.80;;;;;;;7.63;98.34;96349.11;108172;1277;22530;-77
2023/10/24 03:16:45;;;;;;;2.20;1.60;;;;;;;7.60;98.21;96349.15;108239;1278;23182;-77
2023/10/24 03:19:16;;;;;;;3.20;1.70;;;;;;;7.48;97.83;96352.37;108217;1277;25426;-77
2023/10/24 03:21:47;;;;;;;3.00;1.70;;;;;;;7.35;97.95;96345.84;108234;1277;25337;-77
2023/10/24 03:24:18;;;;;;;4.00;2.10;;;;;;;7.36;98.63;96345.69;108169;1277;22573;-77
2023/10/24 03:26:49;;;;;;;2.20;1.80;;;;;;;7.39;98.81;96341.09;108177;1277;22555;-77
2023/10/24 03:29:20;;;;;;;4.40;1.80;;;;;;;7.43;98.88;96335.33;108198;1278;22690;-77
2023/10/24 03:31:51;;;;;;;3.50;2.10;;;;;;;7.44;98.93;96333.16;108199;1271;23282;-77
2023/10/24 03:34:23;;;;;;;3.60;1.80;;;;;;;7.45;98.93;96333.21;108206;1278;22537;-77
2023/10/24 03:36:55;;;;;;;2.60;1.80;;;;;;;7.46;98.98;96326.33;108215;1271;22522;-77
2023/10/24 03:39:29;;;;;;;3.00;1.60;;;;;;;7.47;98.98;96315.13;108200;1278;30658;-77
2023/10/24 03:42:00;;;;;;;3.50;1.60;;;;;;;7.47;98.93;96316.36;108186;1278;22633;-77
2023/10/24 03:44:31;;;;;;;4.00;2.10;;;;;;;7.43;98.73;96312.02;108190;1278;22531;-77
2023/10/24 03:47:03;;;;;;;3.80;1.80;;;;;;;7.39;98.71;96308.60;108190;1278;25416;-77
2023/10/24 03:49:34;;;;;;;4.40;1.80;;;;;;;7.36;98.77;96300.64;108164;1270;26509;-77
2023/10/24 03:52:06;;;;;;;3.00;1.80;;;;;;;7.34;98.74;96289.83;108240;1277;24468;-77
2023/10/24 03:54:37;;;;;;;1.90;1.50;;;;;;;7.29;98.57;96282.70;108224;1271;23181;-77
2023/10/24 03:57:08;;;;;;;2.40;1.50;;;;;;;7.24;98.43;96283.83;108248;1278;22530;-77
2023/10/24 03:59:39;;;;;;;2.70;1.50;;;;;;;7.19;98.27;96290.10;108190;1278;22520;-77
2023/10/24 04:02:10;;;;;;;3.30;1.70;;;;;;;7.12;98.32;96288.52;108203;1271;22521;-77
2023/10/24 04:04:41;;;;;;;2.80;1.60;;;;;;;7.09;98.16;96291.25;108193;1269;24065;-77
2023/10/24 04:07:13;;;;;;;2.90;1.50;;;;;;;7.04;98.44;96283.45;108163;1278;22547;-77
2023/10/24 04:09:44;;;;;;;5.90;2.00;;;;;;;7.02;98.40;96283.29;108203;1278;22593;-77
2023/10/24 04:12:15;;;;;;;3.00;1.50;;;;;;;6.99;98.46;96277.70;108157;1278;22564;-77
2023/10/24 04:14:46;;;;;;;6.60;1.70;;;;;;;6.99;98.51;96278.81;108207;1262;22568;-77
2023/10/24 04:17:17;;;;;;;4.20;1.50;;;;;;;6.99;98.54;96269.27;108227;1278;22557;-77
2023/10/24 04:19:48;;;;;;;2.80;1.10;;;;;;;7.01;98.66;96270.10;108189;1278;22524;-77
2023/10/24 04:22:19;;;;;;;4.30;1.40;;;;;;;7.02;98.78;96274.85;108210;1278;22531;-77
2023/10/24 04:24:50;;;;;;;3.80;1.30;;;;;;;7.02;98.78;96275.37;108256;1278;22524;-77
2023/10/24 04:27:24;;;;;;;2.10;1.30;;;;;;;7.00;98.89;96268.32;108192;1277;22539;-77
2023/10/24 04:29:57;;;;;;;2.70;1.40;;;;;;;6.99;99.12;96268.48;108187;1277;22813;-77
2023/10/24 04:32:31;;;;;;;3.80;1.30;;;;;;;6.99;99.16;96274.11;108207;1278;23851;-77
2023/10/24 04:35:05;;;;;;;3.00;1.40;;;;;;;7.00;99.24;96281.86;108243;1270;22944;-77
2023/10/24 04:37:36;;;;;;;4.20;1.40;;;;;;;6.92;98.97;96280.23;108213;1277;24222;-77
2023/10/24 04:40:10;;;;;;;2.30;1.20;;;;;;;6.81;98.97;96289.39;108166;1270;25289;-77
2023/10/24 04:42:41;;;;;;;2.20;1.30;;;;;;;6.81;99.42;96297.14;108332;1278;24870;-77
2023/10/24 04:45:12;;;;;;;2.20;1.30;;;;;;;6.83;99.70;96291.60;108156;1278;22522;-77
2023/10/24 04:47:43;;;;;;;1.80;1.60;;;;;;;6.83;99.97;96284.54;108204;1278;35666;-77
2023/10/24 04:50:14;;;;;;;4.90;1.70;;;;;;;6.87;100.00;96283.05;108230;1277;22967;-77
2023/10/24 04:52:45;;;;;;;2.90;1.90;;;;;;;6.89;100.00;96283.38;108220;1278;25302;-77
2023/10/24 04:55:17;;;;;;;6.00;2.20;;;;;;;6.91;100.00;96285.55;108249;1270;22536;-77
2023/10/24 04:57:49;;;;;;;3.40;1.80;;;;;;;6.94;100.00;96293.30;108203;1278;22520;-77
2023/10/24 05:00:20;;;;;;;2.50;2.30;;;;;;;6.98;100.00;96295.99;108206;1278;22533;-77
2023/10/24 05:02:52;;;;;;;3.30;2.30;;;;;;;7.00;100.00;96294.61;108235;1277;22534;-77
2023/10/24 05:05:27;;;;;;;3.10;2.10;;;;;;;6.99;100.00;96291.25;108228;1271;22529;-77
2023/10/24 05:08:06;;;;;;;2.40;1.80;;;;;;;6.97;99.97;96278.17;108195;1278;22627;-77
2023/10/24 05:10:37;;;;;;;3.00;1.80;;;;;;;6.96;99.97;96286.92;108235;1278;22526;-77
2023/10/24 05:13:08;;;;;;;4.10;2.20;;;;;;;6.96;99.95;96291.40;108246;1277;22535;-77
2023/10/24 05:15:40;;;;;;;6.90;2.60;;;;;;;6.97;99.98;96289.61;108230;1278;22560;-77
2023/10/24 05:18:11;;;;;;;4.20;1.90;;;;;;;6.98;99.99;96297.78;108290;1278;22959;-77
2023/10/24 05:20:42;;;;;;;3.50;1.60;;;;;;;6.98;100.00;96305.00;108218;1278;23347;-77
2023/10/24 05:23:14;;;;;;;3.80;1.70;;;;;;;6.90;99.71;96286.86;108179;1278;23345;-77
2023/10/24 05:25:45;;;;;;;3.20;1.90;;;;;;;6.85;99.90;96286.75;108192;1278;22540;-77
2023/10/24 05:28:16;;;;;;;3.70;2.60;;;;;;;6.92;100.00;96299.58;108199;1278;26377;-77
2023/10/24 05:30:47;;;;;;;3.90;2.40;;;;;;;7.02;100.00;96299.00;108196;1277;22636;-77
2023/10/24 05:33:18;;;;;;;4.00;2.30;;;;;;;7.09;100.00;96297.05;108188;1278;23262;-77
2023/10/24 05:35:52;;;;;;;5.80;2.80;;;;;;;7.15;100.00;96288.61;108225;1278;22536;-78
2023/10/24 05:38:23;;;;;;;3.40;2.80;;;;;;;7.26;100.00;96292.52;108141;1278;24896;-77
2023/10/24 05:40:57;;;;;;;4.80;2.80;;;;;;;7.33;100.00;96297.32;108226;1278;22548;-77
2023/10/24 05:43:28;;;;;;;4.20;2.60;;;;;;;7.35;100.00;96279.55;108204;1278;24803;-77
2023/10/24 05:46:03;;;;;;;5.70;3.00;;;;;;;7.35;100.00;96277.17;108187;1278;22648;-77
2023/10/24 05:48:35;;;;;;;5.40;3.30;;;;;;;7.33;100.00;96283.20;108152;1277;23894;-77
2023/10/24 05:51:09;;;;;;;6.40;3.20;;;;;;;7.34;100.00;96280.55;108204;1277;22574;-77
2023/10/24 05:53:40;;;;;;;4.40;2.30;;;;;;;7.37;100.00;96273.85;108197;1278;27494;-77
2023/10/24 05:56:11;;;;;;;6.70;2.70;;;;;;;7.39;100.00;96285.17;108213;1278;22531;-77
2023/10/24 05:58:42;;;;;;;2.90;2.30;;;;;;;7.36;100.00;96285.93;108192;1278;22586;-77
2023/10/24 06:01:13;;;;;;;3.80;2.40;;;;;;;7.39;100.00;96281.48;108203;1278;22525;-77
2023/10/24 06:03:46;;;;;;;5.30;2.40;;;;;;;7.44;100.00;96279.42;108205;1278;22521;-77
2023/10/24 06:06:17;;;;;;;5.20;2.40;;;;;;;7.61;100.00;96282.77;108220;1278;22520;-77
2023/10/24 06:08:48;;;;;;;6.90;2.50;;;;;;;8.11;100.00;96284.90;108170;1278;22540;-77
2023/10/24 06:11:19;;;;;;;4.60;2.10;;;;;;;8.94;100.00;96280.04;108218;1278;26608;-77
2023/10/24 06:13:51;;;;;;;4.30;2.30;;;;;;;9.41;99.91;96273.17;108244;1278;22527;-77
2023/10/24 06:16:23;;;;;;;7.90;3.10;;;;;;;9.55;99.08;96269.81;108321;1275;22620;-77
2023/10/24 06:18:54;;;;;;;3.70;2.40;;;;;;;9.61;98.35;96264.31;108173;1277;22549;-77
2023/10/24 06:21:29;;;;;;;4.80;2.10;;;;;;;9.60;97.94;96259.52;108221;1278;25173;-77
2023/10/24 06:24:01;;;;;;;4.10;2.80;;;;;;;9.64;97.93;96259.40;108244;1278;22546;-77
2023/10/24 06:26:32;;;;;;;6.30;3.60;;;;;;;9.64;97.61;96257.77;108224;1278;24244;-77
2023/10/24 06:29:04;;;;;;;15.20;7.10;;;;;;;9.59;97.13;96252.80;108170;1278;25421;-77
2023/10/24 06:31:35;;;;;;;17.20;8.90;;;;;;;9.60;97.27;96250.50;108240;1278;22522;-77
2023/10/24 06:34:09;;;;;;;18.60;10.30;;;;;;;9.53;96.68;96257.77;108195;1278;22592;-77
2023/10/24 06:36:40;;;;;;;17.10;8.20;;;;;;;9.36;96.38;96261.46;108195;1278;22532;-77
2023/10/24 06:39:11;;;;;;;15.30;7.50;;;;;;;9.38;97.01;96254.69;108197;1278;22553;-78
2023/10/24 06:41:42;;;;;;;8.70;5.40;;;;;;;10.05;98.24;96256.73;108172;1277;22546;-77
2023/10/24 06:44:13;;;;;;;6.00;3.10;;;;;;;11.12;97.94;96259.79;108229;1271;22549;-77
2023/10/24 06:46:44;;;;;;;4.50;2.50;;;;;;;12.10;96.71;96260.46;108177;1277;22671;-77
2023/10/24 06:49:15;;;;;;;3.10;2.20;;;;;;;12.63;94.92;96257.47;108180;1277;24502;-77
2023/10/24 06:51:46;;;;;;;4.50;2.40;;;;;;;12.80;93.61;96258.20;108166;1271;22630;-77
2023/10/24 06:54:17;;;;;;;3.50;2.10;;;;;;;13.04;92.52;96253.09;108189;1278;22542;-77
2023/10/24 06:56:48;;;;;;;2.40;2.20;;;;;;;13.38;91.04;96249.41;108207;1277;22534;-77
2023/10/24 06:59:19;;;;;;;4.40;2.20;;;;;;;14.00;90.22;96249.11;108163;1277;22984;-77
2023/10/24 07:01:50;;;;;;;4.70;2.10;;;;;;;14.59;88.92;96252.41;108191;1277;26538;-77
2023/10/24 07:04:22;;;;;;;2.80;2.10;;;;;;;15.29;87.79;96249.20;108215;1277;22553;-78
2023/10/24 07:06:57;;;;;;;4.40;2.10;;;;;;;16.01;86.31;96247.36;108168;1278;25330;-77
2023/10/24 07:09:29;;;;;;;5.10;2.70;;;;;;;16.01;83.75;96251.39;108202;1271;31981;-77
2023/10/24 07:12:00;;;;;;;3.90;2.10;;;;;;;15.92;83.59;96244.38;108208;1278;22651;-78
2023/10/24 07:14:31;;;;;;;4.30;2.60;;;;;;;16.39;83.22;96238.52;108181;1277;22572;-77
2023/10/24 07:17:02;;;;;;;4.90;2.80;;;;;;;16.71;82.04;96230.33;108212;1278;22962;-78
2023/10/24 07:19:34;;;;;;;3.30;2.50;;;;;;;17.16;80.86;96226.52;108135;1277;42403;-78
2023/10/24 07:22:07;;;;;;;3.90;2.40;;;;;;;17.58;79.51;96222.98;108237;1277;25463;-77
2023/10/24 07:24:38;;;;;;;3.60;2.30;;;;;;;17.88;78.38;96220.60;108178;1277;22541;-78
2023/10/24 07:27:12;;;;;;;3.20;2.30;;;;;;;18.42;77.27;96215.40;108209;1277;23250;-78
2023/10/24 07:29:43;;;;;;;4.50;2.20;;;;;;;18.84;76.99;96206.95;108187;1277;22576;-78
2023/10/24 07:32:15;;;;;;;3.90;2.20;;;;;;;19.43;75.57;96209.90;108186;1274;22912;-78
2023/10/24 07:34:48;;;;;;;4.20;2.10;;;;;;;19.46;74.03;96211.97;108225;1278;25285;-78
2023/10/24 07:37:19;;;;;;;3.60;2.30;;;;;;;19.54;73.28;96198.65;108206;1274;26465;-78
2023/10/24 07:39:50;;;;;;;5.40;2.30;;;;;;;19.52;71.89;96198.30;108178;1278;22524;-77
2023/10/24 07:42:22;;;;;;;3.00;2.10;;;;;;;19.60;70.90;96198.39;108215;1277;22775;-77
2023/10/24 07:44:58;;;;;;;4.70;2.10;;;;;;;19.87;70.32;96202.42;108219;1278;24399;-78
2023/10/24 07:47:29;;;;;;;2.80;1.80;;;;;;;20.00;68.71;96202.73;108193;1278;23087;-78
2023/10/24 07:50:01;;;;;;;2.00;1.40;;;;;;;19.78;67.16;96204.73;108182;1271;25352;-78
2023/10/24 07:52:32;;;;;;;3.60;1.40;;;;;;;19.82;67.29;96201.76;108192;1278;22640;-78
2023/10/24 07:55:05;;;;;;;2.70;1.70;;;;;;;19.63;66.03;96194.84;108238;1278;22524;-78
2023/10/24 07:57:36;;;;;;;2.30;1.40;;;;;;;19.86;67.04;96198.55;108179;1278;22517;-78
2023/10/24 08:00:11;;;;;;;4.90;2.10;;;;;;;20.23;66.34;96197.95;108176;1278;24252;-78
2023/10/24 08:02:42;;;;;;;5.00;1.70;;;;;;;20.33;65.39;96199.10;108199;1277;26436;-78
2023/10/24 08:05:13;;;;;;;5.90;1.60;;;;;;;20.20;64.10;96190.91;108177;1278;22575;-78
2023/10/24 08:07:44;;;;;;;3.70;1.60;;;;;;;19.84;63.42;96182.30;108170;1278;26577;-77
2023/10/24 08:10:16;;;;;;;1.90;1.40;;;;;;;19.75;63.54;96176.48;108220;1276;22538;-78
2023/10/24 08:12:47;;;;;;;3.30;2.00;;;;;;;19.89;63.71;96170.73;108169;1272;23262;-78
2023/10/24 08:15:18;;;;;;;6.80;3.00;;;;;;;19.91;63.23;96170.53;108179;1278;23197;-78
2023/10/24 08:17:49;;;;;;;6.20;3.50;;;;;;;19.99;63.51;96163.89;108142;1278;22636;-77
2023/10/24 08:20:22;;;;;;;6.40;4.20;;;;;;;19.85;62.84;96163.64;108189;1277;22544;-78
2023/10/24 08:22:55;;;;;;;6.60;4.30;;;;;;;19.49;62.84;96159.73;108156;1278;22661;-78
2023/10/24 08:25:27;;;;;;;8.10;5.00;;;;;;;19.34;63.24;96162.11;108188;1270;22532;-78
2023/10/24 08:28:01;;;;;;;8.80;4.20;;;;;;;18.93;62.90;96162.20;107960;1275;216811;-77
2023/10/24 08:30:32;;;;;;;4.50;2.90;;;;;;;18.64;63.52;96163.13;108161;1278;25245;-78
2023/10/24 08:33:05;;;;;;;4.00;2.40;;;;;;;18.14;62.86;96165.55;108116;1278;22541;-78
2023/10/24 08:35:36;;;;;;;4.40;2.10;;;;;;;17.60;63.50;96162.55;108209;1278;22541;-78
2023/10/24 08:38:07;;;;;;;3.20;1.90;;;;;;;17.10;63.72;96163.64;108166;1272;24288;-78
2023/10/24 08:40:38;;;;;;;2.70;1.70;;;;;;;16.76;64.45;96157.48;108193;1278;22520;-78
2023/10/24 08:43:12;;;;;;;2.70;2.00;;;;;;;16.52;65.09;96155.08;108128;1278;22759;-78
2023/10/24 08:45:43;;;;;;;3.30;1.90;;;;;;;16.39;65.62;96150.92;108164;1278;22528;-78
2023/10/24 08:48:16;;;;;;;4.80;2.10;;;;;;;16.21;65.73;96144.82;108106;1279;22587;-78
2023/10/24 08:50:47;;;;;;;4.10;1.80;;;;;;;15.98;66.18;96146.69;108158;1278;22539;-78
2023/10/24 08:53:19;;;;;;;2.70;1.60;;;;;;;15.99;66.80;96138.82;108172;1271;24426;-78
2023/10/24 08:55:53;;;;;;;3.00;1.80;;;;;;;15.96;66.99;96133.11;108142;1274;24252;-78
2023/10/24 08:58:25;;;;;;;2.20;1.50;;;;;;;15.99;67.57;96132.43;108095;1278;28011;-78
2023/10/24 09:01:02;;;;;;;3.40;1.80;;;;;;;15.91;67.12;96127.73;108226;1277;22572;-78
2023/10/24 09:03:33;;;;;;;4.80;2.80;;;;;;;15.74;67.28;96124.79;108168;1278;23067;-78
2023/10/24 09:06:07;;;;;;;7.90;4.40;;;;;;;15.66;68.04;96121.25;108140;1278;22528;-78
2023/10/24 09:08:38;;;;;;;13.50;8.20;;;;;;;15.72;68.21;96114.09;108154;1278;22527;-78
2023/10/24 09:11:09;;;;;;;16.80;10.00;;;;;;;15.79;68.40;96103.73;108177;1278;25265;-78
2023/10/24 09:13:40;;;;;;;19.30;10.50;;;;;;;15.89;69.17;96099.38;108198;1278;23835;-78
2023/10/24 09:16:13;;;;;;;14.30;9.80;;;;;;;15.98;69.05;96098.13;108217;1278;22557;-78
2023/10/24 09:18:44;;;;;;;14.50;8.80;;;;;;;16.11;68.86;96092.91;108145;1275;25244;-78
2023/10/24 09:21:16;;;;;;;12.70;8.00;;;;;;;16.21;68.99;96092.33;108153;1268;24245;-78
2023/10/24 09:23:51;;;;;;;10.90;6.90;;;;;;;16.40;69.00;96089.97;108152;1278;22507;-78
2023/10/24 09:26:27;;;;;;;10.90;7.20;;;;;;;16.46;68.50;96086.12;108151;1278;22525;-78
2023/10/24 09:29:03;;;;;;;12.40;8.40;;;;;;;16.32;68.67;96083.55;108154;1271;22635;-78
2023/10/24 09:31:35;;;;;;;15.10;10.10;;;;;;;16.37;69.07;96083.73;108170;1278;22545;-78
2023/10/24 09:34:09;;;;;;;13.40;9.70;;;;;;;16.52;69.35;96086.94;108170;1278;22564;-78
2023/10/24 09:36:40;;;;;;;15.40;11.70;;;;;;;16.55;68.94;96095.60;108185;1278;22578;-78
2023/10/24 09:39:14;;;;;;;21.80;14.60;;;;;;;16.46;69.06;96097.30;108136;1278;22531;-78
2023/10/24 09:41:47;;;;;;;21.00;15.90;;;;;;;16.33;69.44;96090.63;108200;1278;22554;-78
2023/10/24 09:44:19;;;;;;;18.30;12.70;;;;;;;16.57;69.87;96085.14;108153;1278;22587;-78
2023/10/24 09:46:51;;;;;;;14.90;10.50;;;;;;;16.75;69.76;96080.19;108206;1278;25408;-78
2023/10/24 09:49:26;;;;;;;15.30;9.60;;;;;;;16.91;69.98;96076.08;108157;1277;24710;-78
2023/10/24 09:52:00;;;;;;;14.40;8.60;;;;;;;17.13;70.03;96074.23;108227;1278;24295;-78
2023/10/24 09:54:32;;;;;;;14.70;10.00;;;;;;;17.08;69.00;96074.35;108142;1277;25233;-78
2023/10/24 09:57:05;;;;;;;26.90;17.20;;;;;;;16.91;69.07;96074.03;108148;1278;22539;-77
2023/10/24 09:59:37;;;;;;;20.10;11.30;;;;;;;16.90;69.27;96068.85;108155;1278;25860;-78
2023/10/24 10:02:10;;;;;;;14.00;9.50;;;;;;;16.81;69.79;96060.90;108177;1256;22538;-78
2023/10/24 10:04:43;;;;;;;13.60;9.30;;;;;;;16.60;69.26;96045.38;108185;1278;22633;-78
2023/10/24 10:07:16;;;;;;;14.30;10.30;;;;;;;16.29;69.79;96037.11;108180;1278;22535;-78
2023/10/24 10:09:49;;;;;;;16.30;9.10;;;;;;;16.21;70.28;96040.83;108265;1278;22541;-78
2023/10/24 10:12:20;;;;;;;13.70;9.30;;;;;;;16.25;71.12;96039.57;108171;1278;22526;-77
2023/10/24 10:15:08;;;;;;;13.20;8.90;;;;;;;16.25;70.79;96029.05;108198;1278;22526;-78
2023/10/24 10:17:51;;;;;;;12.20;6.40;;;;;;;16.15;70.72;96024.86;108193;1278;22524;-78
2023/10/24 10:20:39;;;;;;;9.70;5.30;;;;;;;16.18;70.92;96026.19;108180;1277;24373;-77
2023/10/24 10:23:31;;;;;;;9.80;5.20;;;;;;;16.03;70.70;96022.85;108195;1278;22589;-78
2023/10/24 10:26:08;;;;;;;8.20;4.30;;;;;;;15.95;71.29;96015.30;108198;1277;24288;-77
2023/10/24 10:29:08;;;;;;;7.70;4.40;;;;;;;16.01;71.36;96006.11;108359;1277;26658;-77
2023/10/24 10:31:58;;;;;;;10.00;4.50;;;;;;;16.01;71.15;95997.54;107924;1278;22684;-77
2023/10/24 10:34:37;;;;;;;7.00;4.20;;;;;;;16.07;71.30;95990.48;108185;1277;22523;-77
2023/10/24 10:37:08;;;;;;;6.00;3.90;;;;;;;16.20;71.41;95990.66;108183;1278;22555;-77
2023/10/24 10:39:39;;;;;;;7.80;3.50;;;;;;;16.42;72.07;95986.38;108134;1277;25300;-77
2023/10/24 10:42:48;;;;;;;4.70;2.90;;;;;;;16.81;72.13;95978.20;108206;1277;22640;-77
2023/10/24 10:45:30;;;;;;;6.10;4.20;;;;;;;17.05;71.36;95977.98;108194;1277;22543;-77
2023/10/24 10:48:04;;;;;;;8.40;3.80;;;;;;;17.25;71.31;95981.30;108114;1277;25293;-77
2023/10/24 10:50:39;;;;;;;6.90;3.50;;;;;;;17.27;70.19;95985.77;108219;1278;22568;-77
2023/10/24 10:53:42;;;;;;;7.50;4.20;;;;;;;17.29;70.44;95990.05;108176;1278;22527;-77
2023/10/24 10:56:22;;;;;;;4.40;3.00;;;;;;;17.40;70.15;95984.19;108227;1278;25354;-77
2023/10/24 10:59:17;;;;;;;6.40;3.20;;;;;;;17.43;69.93;95982.29;108231;1268;22559;-77
2023/10/24 11:01:58;;;;;;;5.10;2.70;;;;;;;17.44;70.26;95979.20;108205;1278;22524;-77
2023/10/24 11:04:30;;;;;;;5.80;2.80;;;;;;;17.51;69.91;95978.73;108205;1278;23278;-77
2023/10/24 11:07:03;;;;;;;4.70;2.50;;;;;;;17.44;69.18;95973.13;108184;1268;23159;-77
2023/10/24 11:09:37;;;;;;;4.70;2.80;;;;;;;17.38;69.09;95964.38;108299;1272;22524;-77
2023/10/24 11:12:30;;;;;;;10.00;2.80;;;;;;;17.47;70.12;95956.08;108183;1278;24141;-77
2023/10/24 11:15:28;;;;;;;5.00;2.50;;;;;;;17.61;70.12;95944.14;108191;1273;24132;-77
2023/10/24 11:18:04;;;;;;;4.60;2.50;;;;;;;17.70;69.81;95932.10;108143;1278;22518;-77
2023/10/24 11:20:36;;;;;;;5.30;2.60;;;;;;;17.84;70.37;95927.13;108176;1278;22537;-77
2023/10/24 11:23:08;;;;;;;7.80;3.00;;;;;;;17.92;70.09;95920.77;108147;1277;22527;-77
2023/10/24 11:25:40;;;;;;;5.30;2.70;;;;;;;17.79;69.04;95920.27;108188;1278;22535;-78
2023/10/24 11:28:12;;;;;;;7.80;3.30;;;;;;;17.63;68.57;95920.71;108188;1278;22520;-77
2023/10/24 11:30:44;;;;;;;6.30;3.10;;;;;;;17.50;68.85;95916.51;108168;1278;22575;-78
2023/10/24 11:33:15;;;;;;;5.40;3.20;;;;;;;17.38;68.92;95910.19;108146;1278;24368;-77
2023/10/24 11:35:46;;;;;;;7.80;3.70;;;;;;;17.31;69.14;95906.20;108168;1278;24010;-78
2023/10/24 11:38:17;;;;;;;7.10;4.00;;;;;;;17.31;69.97;95907.82;108127;1278;24481;-77
2023/10/24 11:40:48;;;;;;;6.50;3.50;;;;;;;17.49;70.58;95912.48;108187;1276;22633;-78
2023/10/24 11:43:19;;;;;;;8.60;5.00;;;;;;;17.63;70.99;95909.59;108135;1277;22516;-78
2023/10/24 11:45:50;;;;;;;9.40;5.10;;;;;;;17.81;71.59;95914.95;108169;1278;22549;-78
2023/10/24 11:48:22;;;;;;;12.10;7.00;;;;;;;17.78;70.88;95910.04;108145;1278;25207;-77
2023/10/24 11:50:53;;;;;;;10.90;7.00;;;;;;;17.75;71.88;95904.21;108134;1278;25275;-78
2023/10/24 11:53:29;;;;;;;9.50;6.60;;;;;;;17.88;72.14;95906.95;108166;1278;23322;-78